Marine Blue — 3ECO4 — position and weather

sailwx.info

Track history (hours):
 
Tides and Currents Weather Stations Pressure Air Temp Water Temp Dewpoint Dewpoint Depression Visibility Wind Speed Wind Dir Waves Ship Positions

Marine Blue

Last reported at 2014-Sep-23 01:32 UTC. Time now 2014-Oct-02 12:33 UTC.
Position N 01°15' E 104°06'.
Warning: this ship's position is 9 days out of date.

Length 125 m; draft 9.3 m.

Type: Cargo ship. MMSI: 371414000.

Date/timePositionNaut miles runAvg speedWind from/ knotsBaromVisibWave heightAir tempDewpointWater temp
2014-Sep-23 01:32N 01°15' E 104°06'1111.3
2014-Sep-23 00:33N 01°13' E 103°55'1111.2
2014-Sep-22 23:33N 01°07' E 103°46'10 9.9
2014-Sep-22 22:32N 01°05' E 103°36'1010.2
2014-Sep-22 21:31N 01°10' E 103°27'  
2014-Sep-17 15:29N 01°17' E 103°22'1213.5
2014-Sep-17 14:33N 01°12' E 103°34'1010.1
2014-Sep-17 13:34N 01°15' E 103°43'4 3.5
2014-Sep-17 12:32N 01°18' E 103°43'0 0.0
2014-Sep-17 11:32N 01°18' E 103°43'0 0.0
2014-Sep-17 10:30N 01°19' E 103°43'0 0.0
2014-Sep-17 09:33N 01°18' E 103°43'0 0.0
2014-Sep-17 08:33N 01°19' E 103°43'0 0.0
2014-Sep-17 07:33N 01°19' E 103°43'0 0.0
2014-Sep-17 06:30N 01°18' E 103°43'0 0.0
2014-Sep-17 05:30N 01°18' E 103°43'0 0.0
2014-Sep-17 04:33N 01°18' E 103°43'0 0.0
2014-Sep-17 03:30N 01°18' E 103°43'0 0.0
2014-Sep-17 02:33N 01°18' E 103°43'0 0.0
2014-Sep-17 01:33N 01°18' E 103°43'0 0.0
2014-Sep-17 00:33N 01°19' E 103°43'0 0.0
2014-Sep-16 23:33N 01°18' E 103°43'0 0.0
2014-Sep-16 22:33N 01°19' E 103°43'0 0.0
2014-Sep-16 21:30N 01°18' E 103°43'0 0.1
2014-Sep-16 20:33N 01°18' E 103°43'9 8.8
2014-Sep-16 19:33N 01°12' E 103°49'1010.3
2014-Sep-16 18:33N 01°15' E 103°59'  
Track history (hours):
 
Tides and Currents Weather Stations Pressure Air Temp Water Temp Dewpoint Dewpoint Depression Visibility Wind Speed Wind Dir Waves Ship Positions

Marine Blue

Last reported at 2014-Sep-23 01:32 UTC. Time now 2014-Oct-02 12:33 UTC.
Position N 01°15' E 104°06'.
Warning: this ship's position is 9 days out of date.

Length 125 m; draft 9.3 m.

Type: Cargo ship. MMSI: 371414000.

Date/timePositionNaut miles runAvg speedWind from/ knotsBaromVisibWave heightAir tempDewpointWater temp
2014-Sep-23 01:32N 01°15' E 104°06'1111.3
2014-Sep-23 00:33N 01°13' E 103°55'1111.2
2014-Sep-22 23:33N 01°07' E 103°46'10 9.9
2014-Sep-22 22:32N 01°05' E 103°36'1010.2
2014-Sep-22 21:31N 01°10' E 103°27'  
2014-Sep-17 15:29N 01°17' E 103°22'1213.5
2014-Sep-17 14:33N 01°12' E 103°34'1010.1
2014-Sep-17 13:34N 01°15' E 103°43'4 3.5
2014-Sep-17 12:32N 01°18' E 103°43'0 0.0
2014-Sep-17 11:32N 01°18' E 103°43'0 0.0
2014-Sep-17 10:30N 01°19' E 103°43'0 0.0
2014-Sep-17 09:33N 01°18' E 103°43'0 0.0
2014-Sep-17 08:33N 01°19' E 103°43'0 0.0
2014-Sep-17 07:33N 01°19' E 103°43'0 0.0
2014-Sep-17 06:30N 01°18' E 103°43'0 0.0
2014-Sep-17 05:30N 01°18' E 103°43'0 0.0
2014-Sep-17 04:33N 01°18' E 103°43'0 0.0
2014-Sep-17 03:30N 01°18' E 103°43'0 0.0
2014-Sep-17 02:33N 01°18' E 103°43'0 0.0
2014-Sep-17 01:33N 01°18' E 103°43'0 0.0
2014-Sep-17 00:33N 01°19' E 103°43'0 0.0
2014-Sep-16 23:33N 01°18' E 103°43'0 0.0
2014-Sep-16 22:33N 01°19' E 103°43'0 0.0
2014-Sep-16 21:30N 01°18' E 103°43'0 0.1
2014-Sep-16 20:33N 01°18' E 103°43'9 8.8
2014-Sep-16 19:33N 01°12' E 103°49'1010.3
2014-Sep-16 18:33N 01°15' E 103°59'  

Dump ship's entire track history